createdAt,value
2023-01-07T00:01:37.612Z,97535.75
2023-01-07T00:04:06.029Z,97539.94
2023-01-07T00:06:35.103Z,97549.97
2023-01-07T00:09:02.687Z,97557.47
2023-01-07T00:11:33.384Z,97545.06
2023-01-07T00:14:01.164Z,97556.88
2023-01-07T00:16:29.737Z,97552.16
2023-01-07T00:18:57.857Z,97559.16
2023-01-07T00:21:25.518Z,97539.00
2023-01-07T00:23:56.709Z,97531.84
2023-01-07T00:26:24.669Z,97529.47
2023-01-07T00:28:52.816Z,97530.31
2023-01-07T00:31:23.943Z,97530.19
2023-01-07T00:33:54.032Z,97532.16
2023-01-07T00:36:30.768Z,97512.88
2023-01-07T00:38:59.518Z,97522.25
2023-01-07T00:41:26.568Z,97526.88
2023-01-07T00:43:53.265Z,97515.25
2023-01-07T00:46:19.753Z,97507.75
2023-01-07T00:48:46.442Z,97510.28
2023-01-07T00:51:14.733Z,97498.66
2023-01-07T00:53:42.194Z,97488.31
2023-01-07T00:56:12.520Z,97490.28
2023-01-07T00:58:38.882Z,97486.41
2023-01-07T01:01:06.014Z,97500.22
2023-01-07T01:03:33.221Z,97498.03
2023-01-07T01:06:04.519Z,97497.63
2023-01-07T01:08:30.959Z,97506.09
2023-01-07T01:11:03.156Z,97501.25
2023-01-07T01:13:29.575Z,97495.25
2023-01-07T01:15:55.978Z,97504.28
2023-01-07T01:18:22.347Z,97489.38
2023-01-07T01:20:48.684Z,97491.41
2023-01-07T01:23:15.119Z,97489.63
2023-01-07T01:25:41.464Z,97486.22
2023-01-07T01:28:07.888Z,97491.19
2023-01-07T01:30:34.237Z,97490.06
2023-01-07T01:33:00.630Z,97488.81
2023-01-07T01:35:27.312Z,97474.09
2023-01-07T01:37:53.718Z,97482.56
2023-01-07T01:40:20.141Z,97481.38
2023-01-07T01:42:46.520Z,97486.22
2023-01-07T01:45:13.104Z,97488.88
2023-01-07T01:47:48.236Z,97484.13
2023-01-07T01:50:27.190Z,97478.72
2023-01-07T01:53:05.141Z,97472.06
2023-01-07T01:55:38.302Z,97465.91
2023-01-07T01:58:09.551Z,97465.91
2023-01-07T02:00:36.616Z,97473.13
2023-01-07T02:03:07.980Z,97473.13
2023-01-07T02:05:40.348Z,97463.66
2023-01-07T02:08:07.023Z,97481.72
2023-01-07T02:10:33.412Z,97475.47
2023-01-07T02:13:28.111Z,97476.75
2023-01-07T02:16:00.657Z,97474.72
2023-01-07T02:18:39.108Z,97470.31
2023-01-07T02:21:36.638Z,97457.50
2023-01-07T02:24:35.988Z,97475.47
2023-01-07T02:27:39.963Z,97470.94
2023-01-07T02:30:18.502Z,97476.69
2023-01-07T02:33:12.791Z,97472.00
2023-01-07T02:36:14.228Z,97459.47
2023-01-07T02:38:59.466Z,97467.38
2023-01-07T02:42:17.765Z,97464.28
2023-01-07T02:44:51.476Z,97470.03
2023-01-07T02:47:29.403Z,97458.56
2023-01-07T02:49:55.803Z,97453.75
2023-01-07T02:52:22.140Z,97458.69
2023-01-07T02:55:15.159Z,97455.88
2023-01-07T02:57:53.093Z,97446.91
2023-01-07T03:00:54.951Z,97448.88
2023-01-07T03:03:42.291Z,97439.66
2023-01-07T03:06:38.456Z,97427.88
2023-01-07T03:09:13.416Z,97432.94
2023-01-07T03:11:54.649Z,97424.81
2023-01-07T03:14:32.295Z,97414.75
2023-01-07T03:17:04.725Z,97428.00
2023-01-07T03:19:35.104Z,97428.63
2023-01-07T03:22:05.263Z,97412.16
2023-01-07T03:24:32.942Z,97412.94
2023-01-07T03:27:03.630Z,97411.69
2023-01-07T03:29:32.197Z,97421.25
2023-01-07T03:32:05.388Z,97410.47
2023-01-07T03:34:34.342Z,97417.56
2023-01-07T03:37:05.490Z,97414.25
2023-01-07T03:39:34.554Z,97403.28
2023-01-07T03:42:22.337Z,97406.91
2023-01-07T03:44:48.714Z,97407.91
2023-01-07T03:47:15.096Z,97413.63
2023-01-07T03:49:41.527Z,97414.66
2023-01-07T03:52:07.905Z,97406.91
2023-01-07T03:54:34.291Z,97395.91
2023-01-07T03:57:00.760Z,97405.16
2023-01-07T03:59:27.136Z,97400.81
2023-01-07T04:01:53.752Z,97404.69
2023-01-07T04:04:20.483Z,97392.13
2023-01-07T04:06:47.213Z,97406.03
2023-01-07T04:09:18.858Z,97398.78
2023-01-07T04:11:45.595Z,97394.34
2023-01-07T04:14:11.943Z,97391.09
2023-01-07T04:16:38.512Z,97378.19
2023-01-07T04:19:04.995Z,97381.53
2023-01-07T04:21:31.524Z,97372.47
2023-01-07T04:23:57.884Z,97378.19
2023-01-07T04:26:24.287Z,97377.31
2023-01-07T04:28:50.631Z,97368.06
2023-01-07T04:31:17.076Z,97368.84
2023-01-07T04:33:44.084Z,97359.81
2023-01-07T04:36:13.134Z,97362.00
2023-01-07T04:38:39.514Z,97361.78
2023-01-07T04:41:05.993Z,97345.06
2023-01-07T04:43:32.415Z,97351.56
2023-01-07T04:45:58.836Z,97339.66
2023-01-07T04:48:25.207Z,97352.91
2023-01-07T04:50:51.566Z,97351.34
2023-01-07T04:53:17.941Z,97343.28
2023-01-07T04:55:46.284Z,97336.09
2023-01-07T04:58:12.863Z,97337.16
2023-01-07T05:00:39.244Z,97334.00
2023-01-07T05:03:05.886Z,97335.75
2023-01-07T05:05:32.313Z,97316.94
2023-01-07T05:07:58.781Z,97321.41
2023-01-07T05:10:25.152Z,97315.25
2023-01-07T05:12:51.574Z,97317.84
2023-01-07T05:15:18.023Z,97319.38
2023-01-07T05:17:44.393Z,97302.59
2023-01-07T05:20:11.398Z,97307.44
2023-01-07T05:22:37.778Z,97297.41
2023-01-07T05:25:04.440Z,97302.31
2023-01-07T05:27:30.910Z,97296.44
2023-01-07T05:29:57.315Z,97300.28
2023-01-07T05:32:23.714Z,97298.19
2023-01-07T05:34:50.078Z,97295.84
2023-01-07T05:37:16.438Z,97312.06
2023-01-07T05:39:42.789Z,97298.13
2023-01-07T05:42:09.170Z,97291.97
2023-01-07T05:44:35.588Z,97297.97
2023-01-07T05:47:01.964Z,97294.56
2023-01-07T05:49:28.339Z,97301.25
2023-01-07T05:51:54.696Z,97307.50
2023-01-07T05:54:21.129Z,97294.09
2023-01-07T05:56:47.500Z,97302.59
2023-01-07T05:59:13.994Z,97302.88
2023-01-07T06:01:40.351Z,97299.81
2023-01-07T06:04:07.533Z,97289.25
2023-01-07T06:06:33.903Z,97289.53
2023-01-07T06:09:00.243Z,97298.75
2023-01-07T06:11:26.623Z,97295.69
2023-01-07T06:13:52.958Z,97293.31
2023-01-07T06:16:19.325Z,97278.91
2023-01-07T06:18:45.675Z,97274.03
2023-01-07T06:21:12.075Z,97280.16
2023-01-07T06:23:38.545Z,97280.44
2023-01-07T06:26:05.076Z,97273.25
2023-01-07T06:28:31.473Z,97270.84
2023-01-07T06:30:57.923Z,97263.53
2023-01-07T06:33:24.396Z,97263.44
2023-01-07T06:35:51.340Z,97256.03
2023-01-07T06:38:17.697Z,97257.50
2023-01-07T06:40:44.672Z,97248.25
2023-01-07T06:43:11.079Z,97253.09
2023-01-07T06:45:37.552Z,97245.41
2023-01-07T06:48:04.500Z,97259.59
2023-01-07T06:50:31.050Z,97240.59
2023-01-07T06:52:57.427Z,97243.38
2023-01-07T06:55:23.938Z,97239.97
2023-01-07T06:57:50.338Z,97242.53
2023-01-07T07:00:16.932Z,97229.13
2023-01-07T07:02:43.447Z,97226.84
2023-01-07T07:05:11.445Z,97238.91
2023-01-07T07:07:37.849Z,97226.31
2023-01-07T07:10:07.337Z,97231.72
2023-01-07T07:12:35.373Z,97229.13
2023-01-07T07:15:02.011Z,97213.47
2023-01-07T07:17:28.368Z,97210.88
2023-01-07T07:19:54.744Z,97215.00
2023-01-07T07:22:21.128Z,97219.91
2023-01-07T07:24:47.572Z,97207.53
2023-01-07T07:27:13.939Z,97213.41
2023-01-07T07:29:40.374Z,97222.41
2023-01-07T07:32:06.781Z,97211.09
2023-01-07T07:34:35.197Z,97212.91
2023-01-07T07:37:02.519Z,97204.94
2023-01-07T07:39:28.895Z,97208.84
2023-01-07T07:41:55.291Z,97203.97
2023-01-07T07:44:21.649Z,97200.59
2023-01-07T07:46:48.078Z,97211.09
2023-01-07T07:49:14.564Z,97200.59
2023-01-07T07:51:40.967Z,97209.22
2023-01-07T07:54:07.312Z,97210.31
2023-01-07T07:56:33.701Z,97199.56
2023-01-07T07:59:00.057Z,97204.59
2023-01-07T08:01:26.600Z,97213.41
2023-01-07T08:03:53.013Z,97191.59
2023-01-07T08:06:19.399Z,97205.72
2023-01-07T08:08:45.722Z,97201.88
2023-01-07T08:11:12.074Z,97186.66
2023-01-07T08:13:38.433Z,97176.03
2023-01-07T08:16:05.247Z,97184.19
2023-01-07T08:18:31.706Z,97179.59
2023-01-07T08:20:58.182Z,97166.31
2023-01-07T08:23:24.640Z,97169.53
2023-01-07T08:25:50.982Z,97161.84
2023-01-07T08:28:17.338Z,97166.44
2023-01-07T08:30:43.814Z,97158.47
2023-01-07T08:33:10.348Z,97156.50
2023-01-07T08:35:36.689Z,97154.72
2023-01-07T08:38:05.969Z,97153.16
2023-01-07T08:40:33.065Z,97161.13
2023-01-07T08:43:05.057Z,97145.47
2023-01-07T08:45:32.304Z,97147.34
2023-01-07T08:47:58.767Z,97137.88
2023-01-07T08:50:26.377Z,97144.13
2023-01-07T08:52:53.041Z,97128.78
2023-01-07T08:55:20.377Z,97142.88
2023-01-07T08:57:47.491Z,97124.59
2023-01-07T09:00:16.029Z,97124.28
2023-01-07T09:02:43.615Z,97118.34
2023-01-07T09:05:11.186Z,97116.78
2023-01-07T09:07:37.935Z,97109.47
2023-01-07T09:10:04.996Z,97119.94
2023-01-07T09:12:31.749Z,97112.66
2023-01-07T09:14:58.161Z,97115.94
2023-01-07T09:17:24.714Z,97116.72
2023-01-07T09:19:51.062Z,97099.81
2023-01-07T09:22:17.441Z,97099.81
2023-01-07T09:24:43.845Z,97114.13
2023-01-07T09:27:10.247Z,97099.25
2023-01-07T09:29:36.581Z,97120.13
2023-01-07T09:32:02.939Z,97113.69
2023-01-07T09:34:29.312Z,97119.16
2023-01-07T09:36:55.669Z,97108.94
2023-01-07T09:39:21.993Z,97108.47
2023-01-07T09:42:06.552Z,97114.81
2023-01-07T09:45:13.518Z,97114.59
2023-01-07T09:47:44.538Z,97109.91
2023-01-07T09:50:26.139Z,97097.72
2023-01-07T09:52:57.635Z,97104.03
2023-01-07T09:55:29.005Z,97098.72
2023-01-07T09:57:55.481Z,97105.16
2023-01-07T10:00:23.888Z,97095.19
2023-01-07T10:02:53.268Z,97107.09
2023-01-07T10:05:47.451Z,97093.28
2023-01-07T10:08:36.532Z,97082.44
2023-01-07T10:11:14.672Z,97096.44
2023-01-07T10:13:57.655Z,97077.06
2023-01-07T10:16:38.586Z,97084.94
2023-01-07T10:19:25.857Z,97078.13
2023-01-07T10:21:57.448Z,97069.59
2023-01-07T10:24:27.810Z,97063.00
2023-01-07T10:26:57.614Z,97064.41
2023-01-07T10:29:50.852Z,97068.66
2023-01-07T10:32:19.686Z,97068.56
2023-01-07T10:34:55.563Z,97061.56
2023-01-07T10:37:34.211Z,97046.81
2023-01-07T10:40:12.722Z,97057.44
2023-01-07T10:43:00.455Z,97053.19
2023-01-07T10:45:37.155Z,97046.69
2023-01-07T10:48:21.186Z,97043.03
2023-01-07T10:51:04.808Z,97042.84
2023-01-07T10:54:01.105Z,97030.56
2023-01-07T10:56:36.722Z,97016.66
2023-01-07T10:59:03.915Z,97016.00
2023-01-07T11:01:37.018Z,97007.25
2023-01-07T11:04:04.357Z,97012.63
2023-01-07T11:06:44.279Z,97009.72
2023-01-07T11:09:16.700Z,97005.06
2023-01-07T11:11:44.704Z,96989.91
2023-01-07T11:14:21.879Z,96971.31
2023-01-07T11:17:08.853Z,96992.94
2023-01-07T11:19:51.393Z,97007.16
2023-01-07T11:22:26.585Z,96997.44
2023-01-07T11:24:56.859Z,96984.56
2023-01-07T11:27:33.590Z,96986.16
2023-01-07T11:30:05.622Z,96975.31
2023-01-07T11:32:35.121Z,96977.50
2023-01-07T11:35:23.058Z,96966.66
2023-01-07T11:37:49.853Z,96953.94
2023-01-07T11:40:24.135Z,96949.47
2023-01-07T11:42:50.486Z,96948.47
2023-01-07T11:45:18.375Z,96946.53
2023-01-07T11:47:49.848Z,96935.91
2023-01-07T11:50:43.905Z,96929.56
2023-01-07T11:53:27.581Z,96926.63
2023-01-07T11:56:01.756Z,96928.06
2023-01-07T11:58:31.821Z,96920.56
2023-01-07T12:01:11.484Z,96918.16
2023-01-07T12:03:41.904Z,96903.81
2023-01-07T12:06:11.059Z,96904.56
2023-01-07T12:08:41.606Z,96900.06
2023-01-07T12:11:11.202Z,96883.41
2023-01-07T12:13:40.909Z,96879.88
2023-01-07T12:16:08.718Z,96880.63
2023-01-07T12:19:03.383Z,96889.72
2023-01-07T12:21:35.412Z,96871.47
2023-01-07T12:24:16.739Z,96870.28
2023-01-07T12:26:56.408Z,96866.56
2023-01-07T12:29:44.997Z,96872.22
2023-01-07T12:32:29.439Z,96863.06
2023-01-07T12:35:14.377Z,96869.16
2023-01-07T12:37:57.166Z,96853.06
2023-01-07T12:40:38.846Z,96852.59
2023-01-07T12:43:12.811Z,96836.50
2023-01-07T12:45:52.334Z,96836.28
2023-01-07T12:48:27.057Z,96838.69
2023-01-07T12:50:56.906Z,96841.47
2023-01-07T12:53:28.299Z,96836.22
2023-01-07T12:56:00.185Z,96837.22
2023-01-07T12:58:41.699Z,96831.34
2023-01-07T13:01:36.556Z,96829.59
2023-01-07T13:04:13.778Z,96817.81
2023-01-07T13:06:51.409Z,96828.44
2023-01-07T13:09:32.663Z,96818.28
2023-01-07T13:12:40.937Z,96804.56
2023-01-07T13:15:28.817Z,96815.03
2023-01-07T13:17:58.239Z,96802.56
2023-01-07T13:20:52.157Z,96808.81
2023-01-07T13:23:27.314Z,96803.47
2023-01-07T13:26:14.697Z,96804.34
2023-01-07T13:28:44.336Z,96809.03
2023-01-07T13:31:25.953Z,96808.31
2023-01-07T13:34:04.581Z,96806.50
2023-01-07T13:36:49.785Z,96809.50
2023-01-07T13:39:25.947Z,96805.09
2023-01-07T13:42:23.058Z,96806.28
2023-01-07T13:45:06.036Z,96790.63
2023-01-07T13:48:00.234Z,96803.38
2023-01-07T13:50:44.911Z,96782.78
2023-01-07T13:53:14.416Z,96797.63
2023-01-07T13:55:46.012Z,96791.97
2023-01-07T13:58:42.756Z,96787.84
2023-01-07T14:01:12.238Z,96790.63
2023-01-07T14:03:58.670Z,96791.97
2023-01-07T14:06:38.584Z,96779.16
2023-01-07T14:09:04.873Z,96783.03
2023-01-07T14:11:32.388Z,96782.28
2023-01-07T14:14:17.952Z,96774.25
2023-01-07T14:16:51.992Z,96769.34
2023-01-07T14:19:36.908Z,96766.56
2023-01-07T14:22:12.323Z,96763.69
2023-01-07T14:24:38.594Z,96766.91
2023-01-07T14:27:44.796Z,96750.00
2023-01-07T14:30:29.664Z,96756.41
2023-01-07T14:33:04.955Z,96756.09
2023-01-07T14:35:37.239Z,96745.75
2023-01-07T14:38:39.540Z,96747.41
2023-01-07T14:41:09.387Z,96744.84
2023-01-07T14:43:47.989Z,96745.19
2023-01-07T14:46:23.574Z,96739.47
2023-01-07T14:49:02.154Z,96744.19
2023-01-07T14:51:58.364Z,96737.16
2023-01-07T14:54:49.398Z,96734.47
2023-01-07T14:57:28.024Z,96734.94
2023-01-07T15:00:47.197Z,96732.00
2023-01-07T15:03:49.482Z,96725.84
2023-01-07T15:06:21.797Z,96728.09
2023-01-07T15:09:11.691Z,96727.50
2023-01-07T15:12:00.473Z,96720.63
2023-01-07T15:14:48.438Z,96744.72
2023-01-07T15:17:16.584Z,96731.72
2023-01-07T15:19:44.106Z,96752.03
2023-01-07T15:22:34.578Z,96761.88
2023-01-07T15:25:09.669Z,96755.06
2023-01-07T15:27:35.966Z,96751.56
2023-01-07T15:30:30.472Z,96751.06
2023-01-07T15:33:05.491Z,96753.38
2023-01-07T15:35:37.998Z,96731.25
2023-01-07T15:38:19.560Z,96748.41
2023-01-07T15:40:46.869Z,96745.16
2023-01-07T15:43:23.378Z,96747.44
2023-01-07T15:45:58.795Z,96738.44
2023-01-07T15:48:25.150Z,96736.78
2023-01-07T15:50:51.800Z,96735.28
2023-01-07T15:53:21.445Z,96733.16
2023-01-07T15:56:10.479Z,96718.41
2023-01-07T15:58:44.856Z,96725.63
2023-01-07T16:01:22.456Z,96715.50
2023-01-07T16:03:52.688Z,96711.69
2023-01-07T16:06:31.222Z,96721.53
2023-01-07T16:08:59.361Z,96721.53
2023-01-07T16:11:28.440Z,96710.53
2023-01-07T16:14:00.072Z,96714.19
2023-01-07T16:16:28.849Z,96708.00
2023-01-07T16:19:00.732Z,96706.75
2023-01-07T16:21:36.757Z,96698.16
2023-01-07T16:24:03.444Z,96697.78
2023-01-07T16:26:40.553Z,96692.22
2023-01-07T16:29:17.126Z,96686.00
2023-01-07T16:31:44.043Z,96676.81
2023-01-07T16:34:25.574Z,96673.31
2023-01-07T16:37:00.390Z,96668.63
2023-01-07T16:39:32.197Z,96674.25
2023-01-07T16:42:17.181Z,96672.69
2023-01-07T16:44:46.183Z,96673.69
2023-01-07T16:47:22.547Z,96675.13
2023-01-07T16:49:53.523Z,96645.47
2023-01-07T16:52:22.153Z,96658.38
2023-01-07T16:54:50.056Z,96657.16
2023-01-07T16:57:16.344Z,96663.56
2023-01-07T16:59:53.474Z,96653.78
2023-01-07T17:02:48.462Z,96651.78
2023-01-07T17:05:36.843Z,96651.00
2023-01-07T17:08:06.957Z,96640.69
2023-01-07T17:10:36.709Z,96649.50
2023-01-07T17:13:07.152Z,96637.94
2023-01-07T17:15:33.703Z,96650.34
2023-01-07T17:18:26.387Z,96645.75
2023-01-07T17:20:55.594Z,96633.13
2023-01-07T17:23:25.117Z,96636.97
2023-01-07T17:26:40.440Z,96633.13
2023-01-07T17:29:12.994Z,96641.19
2023-01-07T17:31:40.597Z,96646.34
2023-01-07T17:34:11.100Z,96628.66
2023-01-07T17:36:37.563Z,96634.94
2023-01-07T17:39:04.258Z,96628.16
2023-01-07T17:41:53.245Z,96634.09
2023-01-07T17:44:19.658Z,96628.53
2023-01-07T17:46:46.051Z,96617.97
2023-01-07T17:49:12.624Z,96636.97
2023-01-07T17:51:41.411Z,96625.50
2023-01-07T17:54:16.990Z,96635.81
2023-01-07T17:56:43.342Z,96617.97
2023-01-07T17:59:15.745Z,96619.28
2023-01-07T18:01:42.510Z,96617.81
2023-01-07T18:04:10.201Z,96617.06
2023-01-07T18:06:38.127Z,96627.03
2023-01-07T18:09:04.953Z,96638.56
2023-01-07T18:11:55.463Z,96644.19
2023-01-07T18:14:21.836Z,96626.03
2023-01-07T18:16:48.285Z,96638.00
2023-01-07T18:19:15.025Z,96625.47
2023-01-07T18:21:41.454Z,96639.44
2023-01-07T18:24:08.090Z,96639.59
2023-01-07T18:26:34.435Z,96651.38
2023-01-07T18:29:00.784Z,96613.97
2023-01-07T18:31:27.154Z,96624.50
2023-01-07T18:33:53.603Z,96645.25
2023-01-07T18:36:19.980Z,96618.28
2023-01-07T18:38:46.408Z,96620.28
2023-01-07T18:41:12.777Z,96625.28
2023-01-07T18:43:39.145Z,96622.41
2023-01-07T18:46:09.613Z,96620.50
2023-01-07T18:48:36.655Z,96604.63
2023-01-07T18:51:09.400Z,96611.88
2023-01-07T18:53:35.802Z,96595.47
2023-01-07T18:56:02.549Z,96589.75
2023-01-07T18:58:29.325Z,96595.84
2023-01-07T19:00:55.801Z,96586.75
2023-01-07T19:03:22.232Z,96586.00
2023-01-07T19:05:48.613Z,96585.88
2023-01-07T19:08:14.978Z,96579.50
2023-01-07T19:10:41.763Z,96576.91
2023-01-07T19:13:08.125Z,96574.22
2023-01-07T19:15:34.464Z,96560.69
2023-01-07T19:18:00.816Z,96572.84
2023-01-07T19:20:27.180Z,96580.19
2023-01-07T19:23:00.151Z,96579.59
2023-01-07T19:25:30.580Z,96573.88
2023-01-07T19:27:57.786Z,96577.38
2023-01-07T19:30:25.162Z,96567.34
2023-01-07T19:32:53.063Z,96572.22
2023-01-07T19:35:19.402Z,96571.63
2023-01-07T19:37:45.746Z,96566.97
2023-01-07T19:40:12.847Z,96562.66
2023-01-07T19:42:39.239Z,96564.41
2023-01-07T19:45:06.560Z,96575.28
2023-01-07T19:47:32.943Z,96568.34
2023-01-07T19:49:59.287Z,96566.25
2023-01-07T19:52:25.653Z,96570.28
2023-01-07T19:54:52.031Z,96571.41
2023-01-07T19:57:18.387Z,96585.41
2023-01-07T19:59:44.750Z,96577.69
2023-01-07T20:02:13.713Z,96577.38
2023-01-07T20:04:40.683Z,96581.50
2023-01-07T20:07:07.031Z,96577.31
2023-01-07T20:09:34.383Z,96592.50
2023-01-07T20:12:00.789Z,96594.97
2023-01-07T20:14:27.161Z,96584.97
2023-01-07T20:16:53.551Z,96570.81
2023-01-07T20:19:20.095Z,96582.28
2023-01-07T20:21:46.600Z,96583.72
2023-01-07T20:24:13.465Z,96586.47
2023-01-07T20:26:39.911Z,96572.72
2023-01-07T20:29:06.405Z,96561.84
2023-01-07T20:31:33.552Z,96563.91
2023-01-07T20:34:00.291Z,96584.19
2023-01-07T20:36:29.743Z,96573.56
2023-01-07T20:38:56.777Z,96573.97
2023-01-07T20:41:26.292Z,96567.72
2023-01-07T20:43:58.268Z,96562.28
2023-01-07T20:46:26.160Z,96553.56
2023-01-07T20:48:52.658Z,96555.22
2023-01-07T20:51:19.453Z,96557.22
2023-01-07T20:53:49.356Z,96548.63
2023-01-07T20:56:18.756Z,96552.16
2023-01-07T20:58:45.449Z,96556.00
2023-01-07T21:01:14.595Z,96555.53
2023-01-07T21:03:41.810Z,96540.84
2023-01-07T21:06:10.464Z,96526.50
2023-01-07T21:08:37.643Z,96542.09
2023-01-07T21:11:07.533Z,96539.88
2023-01-07T21:13:33.904Z,96535.03
2023-01-07T21:16:04.577Z,96540.28
2023-01-07T21:18:32.258Z,96547.25
2023-01-07T21:20:59.055Z,96531.88
2023-01-07T21:23:26.442Z,96536.47
2023-01-07T21:25:53.385Z,96536.94
2023-01-07T21:28:19.768Z,96527.38
2023-01-07T21:30:46.468Z,96522.31
2023-01-07T21:33:12.855Z,96534.81
2023-01-07T21:35:40.537Z,96512.25
2023-01-07T21:38:07.019Z,96528.25
2023-01-07T21:40:33.403Z,96522.91
2023-01-07T21:42:59.794Z,96517.91
2023-01-07T21:45:26.203Z,96510.81
2023-01-07T21:47:52.538Z,96518.00
2023-01-07T21:50:18.936Z,96522.56
2023-01-07T21:52:45.283Z,96507.53
2023-01-07T21:55:11.761Z,96510.31
2023-01-07T21:57:38.263Z,96502.72
2023-01-07T22:00:06.724Z,96516.88
2023-01-07T22:02:33.444Z,96518.75
2023-01-07T22:04:59.837Z,96513.69
2023-01-07T22:07:26.216Z,96499.03
2023-01-07T22:09:52.576Z,96521.69
2023-01-07T22:12:18.955Z,96523.94
2023-01-07T22:14:46.266Z,96520.22
2023-01-07T22:17:13.883Z,96534.06
2023-01-07T22:19:40.447Z,96520.63
2023-01-07T22:22:07.338Z,96528.19
2023-01-07T22:24:34.541Z,96521.63
2023-01-07T22:27:01.144Z,96515.28
2023-01-07T22:29:28.762Z,96520.69
2023-01-07T22:31:55.182Z,96506.97
2023-01-07T22:34:21.637Z,96509.63
2023-01-07T22:36:50.674Z,96516.22
2023-01-07T22:39:21.724Z,96515.16
2023-01-07T22:41:55.432Z,96509.88
2023-01-07T22:44:33.125Z,96510.06
2023-01-07T22:46:59.999Z,96502.81
2023-01-07T22:49:28.874Z,96517.34
2023-01-07T22:51:55.484Z,96512.50
2023-01-07T22:54:22.465Z,96500.47
2023-01-07T22:56:49.868Z,96500.00
2023-01-07T22:59:16.227Z,96496.25
2023-01-07T23:01:42.603Z,96488.63
2023-01-07T23:04:09.251Z,96494.25
2023-01-07T23:06:35.977Z,96507.03
2023-01-07T23:09:02.671Z,96490.03
2023-01-07T23:11:47.737Z,96492.91
2023-01-07T23:14:23.238Z,96478.44
2023-01-07T23:16:51.071Z,96478.00
2023-01-07T23:19:18.597Z,96477.72
2023-01-07T23:21:47.664Z,96478.34
2023-01-07T23:24:14.818Z,96476.22
2023-01-07T23:26:42.055Z,96476.34
2023-01-07T23:29:09.218Z,96468.47
2023-01-07T23:31:36.634Z,96461.63
2023-01-07T23:34:03.224Z,96451.25
2023-01-07T23:36:29.641Z,96446.38
2023-01-07T23:38:56.125Z,96450.47
2023-01-07T23:41:22.517Z,96453.22
2023-01-07T23:43:49.508Z,96452.94
2023-01-07T23:46:15.979Z,96446.84
2023-01-07T23:48:42.427Z,96434.97
2023-01-07T23:51:12.149Z,96424.78
2023-01-07T23:53:38.609Z,96415.94
2023-01-07T23:56:06.231Z,96412.44
2023-01-07T23:58:33.201Z,96407.59
